Time;durP1;ratioP1;P1;durP2;ratioP2;P2;SDS_P1;SDS_P2;PMS_P1;PMS_P2;Temp;Humidity;BMP_temperature;BMP_pressure;BME280_temperature;BME280_humidity;BME280_pressure;Samples;Min_cycle;Max_cycle;Signal;HPM_P1;HPM_P2
2021/01/07 00:00:17;;;;;;;2.57;2.20;;;18.00;51.50;;;;;;6265018;22;20181;-53
2021/01/07 00:02:43;;;;;;;14.67;2.30;;;18.00;51.50;;;;;;6264574;22;20256;-52
2021/01/07 00:05:10;;;;;;;2.10;1.90;;;17.90;51.50;;;;;;6262605;22;20276;-52
2021/01/07 00:07:36;;;;;;;4.20;2.50;;;17.90;51.50;;;;;;6265371;22;20250;-53
2021/01/07 00:10:04;;;;;;;3.60;2.50;;;17.90;51.60;;;;;;6261698;22;20833;-52
2021/01/07 00:12:31;;;;;;;3.30;2.00;;;17.80;51.50;;;;;;6265046;22;20175;-53
2021/01/07 00:14:57;;;;;;;2.63;2.40;;;17.80;51.50;;;;;;6261507;22;20507;-53
2021/01/07 00:17:23;;;;;;;3.33;2.30;;;17.80;51.60;;;;;;6264570;22;20689;-53
2021/01/07 00:19:50;;;;;;;3.43;2.20;;;17.80;51.60;;;;;;6261993;22;20216;-53
2021/01/07 00:22:16;;;;;;;2.80;2.17;;;17.70;51.60;;;;;;6265268;22;20201;-52
2021/01/07 00:24:43;;;;;;;2.20;2.00;;;17.80;51.60;;;;;;6261643;22;20921;-53
2021/01/07 00:27:11;;;;;;;4.43;2.13;;;17.70;51.50;;;;;;6264911;22;20630;-53
2021/01/07 00:29:38;;;;;;;2.63;2.10;;;17.70;51.50;;;;;;6260898;22;20177;-53
2021/01/07 00:32:05;;;;;;;3.00;2.10;;;17.70;51.50;;;;;;6265081;22;20256;-54
2021/01/07 00:34:31;;;;;;;2.90;2.20;;;17.70;51.60;;;;;;6260812;22;20199;-54
2021/01/07 00:36:58;;;;;;;3.40;2.33;;;17.70;51.70;;;;;;6264951;22;20377;-53
2021/01/07 00:39:25;;;;;;;3.40;1.87;;;17.60;51.60;;;;;;6261184;22;20177;-53
2021/01/07 00:41:58;;;;;;;3.47;2.10;;;17.60;51.60;;;;;;6265228;22;20248;-53
2021/01/07 00:44:26;;;;;;;3.10;2.10;;;17.60;51.60;;;;;;6265419;22;20199;-53
2021/01/07 00:46:52;;;;;;;2.80;2.27;;;17.60;51.70;;;;;;6261254;22;20638;-53
2021/01/07 00:49:19;;;;;;;2.57;2.00;;;17.50;51.60;;;;;;6265745;22;20252;-53
2021/01/07 00:51:45;;;;;;;2.80;1.83;;;17.60;51.60;;;;;;6261196;22;20251;-53
2021/01/07 00:54:12;;;;;;;3.63;2.40;;;17.60;51.90;;;;;;6265632;22;20634;-53
2021/01/07 00:56:39;;;;;;;2.60;2.03;;;17.50;51.60;;;;;;6260107;22;20280;-53
2021/01/07 00:59:07;;;;;;;3.00;2.50;;;17.50;51.70;;;;;;6265512;22;20183;-53
2021/01/07 01:01:41;;;;;;;2.63;2.00;;;17.50;51.70;;;;;;6261036;22;20251;-53
2021/01/07 01:04:07;;;;;;;2.20;2.00;;;17.50;51.70;;;;;;6265763;22;20713;-53
2021/01/07 01:06:34;;;;;;;2.57;2.17;;;17.50;51.70;;;;;;6261366;22;20177;-53
2021/01/07 01:09:00;;;;;;;3.10;2.10;;;17.50;51.70;;;;;;6265362;22;20244;-53
2021/01/07 01:11:27;;;;;;;2.27;2.07;;;17.50;51.80;;;;;;6260994;22;20252;-53
2021/01/07 01:13:54;;;;;;;2.30;1.80;;;17.40;51.70;;;;;;6265447;22;20165;-53
2021/01/07 01:16:26;;;;;;;3.20;2.27;;;17.40;51.70;;;;;;6258799;22;20200;-53
2021/01/07 01:18:52;;;;;;;2.50;2.30;;;17.40;51.70;;;;;;6266296;22;20252;-53
2021/01/07 01:21:19;;;;;;;3.33;2.37;;;17.40;51.70;;;;;;6260582;22;20248;-53
2021/01/07 01:23:45;;;;;;;3.00;2.10;;;17.40;51.70;;;;;;6265180;22;20264;-53
2021/01/07 01:26:16;;;;;;;2.70;2.03;;;17.40;51.80;;;;;;6263545;22;20240;-54
2021/01/07 01:28:42;;;;;;;2.40;2.10;;;17.40;51.80;;;;;;6263769;22;20176;-53
2021/01/07 01:31:09;;;;;;;2.53;2.00;;;17.40;51.80;;;;;;6264423;22;20741;-53
2021/01/07 01:33:36;;;;;;;2.57;1.97;;;17.30;51.70;;;;;;6261305;22;20169;-53
2021/01/07 01:36:02;;;;;;;2.30;2.10;;;17.30;51.90;;;;;;6264405;22;20211;-53
2021/01/07 01:38:29;;;;;;;2.30;2.10;;;17.30;51.90;;;;;;6261273;22;20165;-54
2021/01/07 01:41:05;;;;;;;2.33;2.00;;;17.30;52.20;;;;;;6264655;22;20267;-53
2021/01/07 01:43:35;;;;;;;2.93;2.40;;;17.30;51.90;;;;;;6260763;22;20251;-53
2021/01/07 01:46:02;;;;;;;2.23;2.03;;;17.30;51.90;;;;;;6265040;22;20197;-53
2021/01/07 01:48:29;;;;;;;2.57;1.97;;;17.30;51.90;;;;;;6260724;22;20177;-53
2021/01/07 01:50:58;;;;;;;2.07;1.87;;;17.20;51.80;;;;;;6265069;22;20172;-53
2021/01/07 01:53:24;;;;;;;2.27;1.60;;;17.20;51.90;;;;;;6260552;22;20350;-53
2021/01/07 01:55:51;;;;;;;2.53;2.07;;;17.20;51.90;;;;;;6264881;22;20673;-53
2021/01/07 01:58:18;;;;;;;2.20;1.90;;;17.20;51.90;;;;;;6259627;22;20732;-53
2021/01/07 02:00:44;;;;;;;2.40;2.10;;;17.20;51.90;;;;;;6264814;22;20184;-53
2021/01/07 02:03:11;;;;;;;2.63;2.10;;;17.10;51.90;;;;;;6260605;22;20180;-52
2021/01/07 02:05:39;;;;;;;2.03;1.87;;;17.20;51.90;;;;;;6265574;22;20241;-53
2021/01/07 02:08:08;;;;;;;2.73;1.90;;;17.20;51.90;;;;;;6261995;22;20255;-53
2021/01/07 02:10:35;;;;;;;2.47;2.10;;;17.20;51.90;;;;;;6266016;22;20498;-53
2021/01/07 02:13:03;;;;;;;2.17;1.80;;;17.10;51.90;;;;;;6265682;22;20255;-53
2021/01/07 02:15:30;;;;;;;1.83;1.73;;;17.10;52.00;;;;;;6262065;22;20251;-53
2021/01/07 02:17:57;;;;;;;2.60;1.80;;;17.10;52.00;;;;;;6264732;22;20177;-53
2021/01/07 02:20:25;;;;;;;2.53;1.80;;;17.10;52.00;;;;;;6260968;22;20272;-53
2021/01/07 02:22:54;;;;;;;2.10;1.90;;;17.10;52.00;;;;;;6264342;22;20256;-53
2021/01/07 02:25:27;;;;;;;2.57;2.20;;;17.10;52.10;;;;;;6260489;22;20203;-53
2021/01/07 02:27:54;;;;;;;2.20;1.80;;;17.10;52.10;;;;;;6264696;22;20181;-53
2021/01/07 02:30:21;;;;;;;2.67;2.10;;;17.00;52.10;;;;;;6260484;22;20673;-53
2021/01/07 02:32:48;;;;;;;2.33;1.80;;;17.00;52.20;;;;;;6264213;22;20233;-53
2021/01/07 02:35:16;;;;;;;2.33;1.97;;;17.00;52.10;;;;;;6260144;22;20169;-53
2021/01/07 02:37:42;;;;;;;2.10;1.90;;;17.00;52.10;;;;;;6264129;22;20725;-53
2021/01/07 02:40:09;;;;;;;2.33;2.13;;;17.00;52.10;;;;;;6261735;22;20261;-53
2021/01/07 02:42:36;;;;;;;2.20;2.00;;;17.00;52.10;;;;;;6265795;22;20173;-53
2021/01/07 02:45:04;;;;;;;2.13;1.93;;;17.00;52.10;;;;;;6262148;22;20712;-54
2021/01/07 02:47:30;;;;;;;2.30;2.10;;;17.00;52.10;;;;;;6266499;22;20236;-53
2021/01/07 02:49:56;;;;;;;2.83;1.83;;;17.00;52.10;;;;;;6263473;22;20264;-53
2021/01/07 02:52:23;;;;;;;2.30;1.80;;;17.00;52.10;;;;;;6266977;22;20248;-53
2021/01/07 02:54:49;;;;;;;2.40;2.00;;;17.00;52.20;;;;;;6266658;22;20211;-53
2021/01/07 02:57:16;;;;;;;2.33;2.07;;;16.90;52.20;;;;;;6261214;22;20248;-53
2021/01/07 02:59:42;;;;;;;2.23;1.80;;;16.90;52.10;;;;;;6266908;22;20541;-53
2021/01/07 03:02:08;;;;;;;1.83;1.60;;;16.90;52.10;;;;;;6235318;22;20248;-53
2021/01/07 03:04:35;;;;;;;2.30;1.87;;;16.90;52.20;;;;;;6267168;22;20189;-53
2021/01/07 03:07:01;;;;;;;2.10;1.90;;;16.90;52.30;;;;;;6262682;22;20265;-54
2021/01/07 03:09:28;;;;;;;1.87;1.70;;;16.90;52.20;;;;;;6266199;22;20199;-53
2021/01/07 03:11:54;;;;;;;2.13;1.67;;;16.90;52.20;;;;;;6262818;22;20550;-53
2021/01/07 03:14:20;;;;;;;2.50;1.87;;;16.90;52.20;;;;;;6266311;22;20264;-53
2021/01/07 03:16:47;;;;;;;2.00;1.80;;;16.80;52.30;;;;;;6271422;22;20322;-53
2021/01/07 03:19:13;;;;;;;2.10;1.67;;;16.80;52.30;;;;;;6267047;22;20181;-53
2021/01/07 03:21:41;;;;;;;2.30;1.87;;;16.80;52.30;;;;;;6262475;22;20260;-53
2021/01/07 03:24:10;;;;;;;1.97;1.63;;;16.80;52.30;;;;;;6265640;22;20181;-53
2021/01/07 03:26:37;;;;;;;1.77;1.67;;;16.80;52.30;;;;;;6262355;22;20225;-53
2021/01/07 03:29:04;;;;;;;2.30;2.10;;;16.80;52.30;;;;;;6265484;22;20248;-53
2021/01/07 03:31:31;;;;;;;2.13;1.87;;;16.80;52.40;;;;;;6262293;22;20534;-54
2021/01/07 03:33:57;;;;;;;1.80;1.50;;;16.80;52.40;;;;;;6265128;22;20302;-53
2021/01/07 03:36:23;;;;;;;2.83;1.87;;;16.80;52.30;;;;;;6265788;22;20374;-54
2021/01/07 03:38:50;;;;;;;2.40;1.80;;;16.80;52.40;;;;;;6235051;22;20257;-53
2021/01/07 03:41:17;;;;;;;2.43;1.80;;;16.70;52.40;;;;;;6266804;22;20244;-54
2021/01/07 03:43:43;;;;;;;2.67;1.80;;;16.70;52.30;;;;;;6261288;22;20184;-54
2021/01/07 03:46:09;;;;;;;1.97;1.73;;;16.80;52.40;;;;;;6267037;22;20280;-53
2021/01/07 03:48:36;;;;;;;2.20;1.67;;;16.70;52.30;;;;;;6262310;22;20771;-54
2021/01/07 03:51:02;;;;;;;1.67;1.57;;;16.70;52.30;;;;;;6265821;22;20578;-56
2021/01/07 03:53:29;;;;;;;1.63;1.53;;;16.70;52.30;;;;;;6261280;22;20260;-53
2021/01/07 03:55:55;;;;;;;2.40;1.90;;;16.70;52.30;;;;;;6266329;22;20173;-53
2021/01/07 03:58:21;;;;;;;2.43;1.80;;;16.70;52.40;;;;;;6261149;22;20252;-53
2021/01/07 04:00:47;;;;;;;2.67;1.63;;;16.70;52.40;;;;;;6265721;22;20360;-54
2021/01/07 04:03:14;;;;;;;2.13;1.70;;;16.70;52.40;;;;;;6261304;22;20233;-53
2021/01/07 04:05:40;;;;;;;4.13;2.00;;;16.70;52.40;;;;;;6265920;22;20196;-53
2021/01/07 04:08:07;;;;;;;2.43;2.23;;;16.70;52.40;;;;;;6261371;22;20169;-54
2021/01/07 04:10:33;;;;;;;3.70;2.20;;;16.70;52.40;;;;;;6266048;22;20240;-53
2021/01/07 04:12:59;;;;;;;2.97;2.10;;;16.70;52.40;;;;;;6266351;22;20568;-53
2021/01/07 04:15:26;;;;;;;3.37;1.83;;;16.70;52.40;;;;;;6235185;22;20264;-53
2021/01/07 04:17:52;;;;;;;3.13;1.80;;;16.70;52.40;;;;;;6266970;22;20260;-53
2021/01/07 04:20:18;;;;;;;2.90;2.43;;;16.60;52.50;;;;;;6262354;22;20187;-53
2021/01/07 04:22:44;;;;;;;2.20;2.00;;;16.60;52.40;;;;;;6267116;22;20256;-53
2021/01/07 04:25:11;;;;;;;3.03;2.07;;;16.70;52.50;;;;;;6262013;22;20189;-53
2021/01/07 04:27:38;;;;;;;3.53;2.37;;;16.60;52.40;;;;;;6267149;22;20173;-53
2021/01/07 04:30:06;;;;;;;1.90;1.80;;;16.60;52.40;;;;;;6260642;22;20165;-54
2021/01/07 04:32:33;;;;;;;2.23;1.97;;;16.60;52.40;;;;;;6266111;22;20734;-53
2021/01/07 04:34:59;;;;;;;2.37;1.73;;;16.60;52.40;;;;;;6261891;22;20740;-54
2021/01/07 04:37:25;;;;;;;2.63;2.10;;;16.60;52.40;;;;;;6266564;22;20193;-53
2021/01/07 04:39:51;;;;;;;2.73;2.10;;;16.60;52.50;;;;;;6261874;22;20179;-53
2021/01/07 04:42:18;;;;;;;2.40;2.20;;;16.60;52.40;;;;;;6266294;22;20183;-53
2021/01/07 04:44:45;;;;;;;2.73;2.47;;;16.60;52.50;;;;;;6262010;22;20189;-54
2021/01/07 04:47:12;;;;;;;3.30;2.00;;;16.60;52.50;;;;;;6266345;22;20544;-53
2021/01/07 04:49:38;;;;;;;3.10;2.30;;;16.60;52.40;;;;;;6266179;22;20275;-53
2021/01/07 04:52:05;;;;;;;2.10;1.97;;;16.60;52.40;;;;;;6262638;22;20798;-53
2021/01/07 04:54:33;;;;;;;2.57;2.30;;;16.60;52.50;;;;;;6266012;22;20177;-54
2021/01/07 04:56:59;;;;;;;2.40;2.10;;;16.60;52.50;;;;;;6262839;22;20162;-53
2021/01/07 04:59:26;;;;;;;2.40;2.20;;;16.50;52.40;;;;;;6265975;22;20260;-53
2021/01/07 05:01:53;;;;;;;2.60;2.40;;;16.50;52.40;;;;;;6262252;22;20749;-54
2021/01/07 05:04:24;;;;;;;2.83;2.63;;;16.50;52.40;;;;;;6265478;22;20174;-54
2021/01/07 05:06:50;;;;;;;2.60;2.40;;;16.50;52.40;;;;;;6270937;22;20229;-53
2021/01/07 05:09:17;;;;;;;3.10;2.47;;;16.50;52.40;;;;;;6265912;22;20177;-54
2021/01/07 05:11:43;;;;;;;2.67;2.47;;;16.50;52.40;;;;;;6261749;22;20248;-54
2021/01/07 05:14:11;;;;;;;2.57;2.30;;;16.50;52.40;;;;;;6265909;22;20165;-54
2021/01/07 05:16:37;;;;;;;3.23;2.60;;;16.50;52.40;;;;;;6261177;22;20180;-54
2021/01/07 05:19:05;;;;;;;2.90;2.50;;;16.50;52.40;;;;;;6265778;22;20177;-54
2021/01/07 05:21:34;;;;;;;3.60;2.63;;;16.50;52.40;;;;;;6261899;22;20176;-54
2021/01/07 05:24:02;;;;;;;3.50;2.80;;;16.50;52.50;;;;;;6265507;22;20173;-54
2021/01/07 05:26:28;;;;;;;3.00;2.70;;;16.50;52.40;;;;;;6235093;22;20300;-54
2021/01/07 05:28:57;;;;;;;2.70;2.50;;;16.50;52.40;;;;;;6265871;22;20221;-54
2021/01/07 05:31:27;;;;;;;2.47;2.27;;;16.50;52.50;;;;;;6265776;22;20532;-54
2021/01/07 05:33:55;;;;;;;2.97;2.57;;;16.50;52.50;;;;;;6264967;22;20633;-54
2021/01/07 05:36:27;;;;;;;2.50;2.30;;;16.50;52.50;;;;;;6265354;22;20288;-54
2021/01/07 05:39:06;;;;;;;2.70;2.50;;;16.50;52.40;;;;;;6261750;22;20181;-54
2021/01/07 05:41:36;;;;;;;2.70;2.50;;;16.50;52.50;;;;;;6275775;22;20224;-54
2021/01/07 05:44:08;;;;;;;3.70;2.63;;;16.50;52.50;;;;;;6262449;22;20244;-54
2021/01/07 05:46:35;;;;;;;2.53;2.33;;;16.50;52.50;;;;;;6265692;22;20246;-54
2021/01/07 05:49:02;;;;;;;3.53;2.60;;;16.50;52.50;;;;;;6262056;22;20256;-53
2021/01/07 05:51:30;;;;;;;3.90;2.43;;;16.50;52.50;;;;;;6265464;22;20292;-54
2021/01/07 05:53:58;;;;;;;2.70;2.50;;;16.50;52.50;;;;;;6261648;22;20165;-54
2021/01/07 05:56:25;;;;;;;2.93;2.50;;;16.50;52.50;;;;;;6265705;22;20180;-54
2021/01/07 05:58:53;;;;;;;2.53;2.30;;;16.40;52.50;;;;;;6261706;22;20173;-54
2021/01/07 06:01:22;;;;;;;2.60;2.40;;;16.40;52.50;;;;;;6265406;22;20169;-54
2021/01/07 06:03:53;;;;;;;2.40;2.20;;;16.50;52.60;;;;;;6262302;22;20177;-55
2021/01/07 06:06:23;;;;;;;3.53;2.30;;;16.50;52.60;;;;;;6265167;22;20280;-54
2021/01/07 06:08:54;;;;;;;2.53;2.30;;;16.40;52.50;;;;;;6261708;22;20169;-54
2021/01/07 06:11:23;;;;;;;3.57;2.40;;;16.50;52.70;;;;;;6265515;22;20321;-54
2021/01/07 06:13:55;;;;;;;3.80;2.30;;;16.50;52.70;;;;;;6261176;22;20173;-54
2021/01/07 06:16:23;;;;;;;4.13;2.70;;;16.50;52.70;;;;;;6264737;22;20665;-54
2021/01/07 06:18:50;;;;;;;2.27;2.07;;;16.50;52.80;;;;;;6261438;22;20787;-54
2021/01/07 06:21:17;;;;;;;2.33;2.13;;;16.40;52.80;;;;;;6265421;22;20401;-54
2021/01/07 06:23:45;;;;;;;2.80;2.47;;;16.40;52.80;;;;;;6262137;22;20249;-54
2021/01/07 06:26:24;;;;;;;2.20;1.80;;;16.50;52.80;;;;;;6274575;22;20721;-54
2021/01/07 06:28:56;;;;;;;2.43;2.23;;;16.40;52.70;;;;;;6265083;22;20234;-54
2021/01/07 06:31:36;;;;;;;3.00;2.23;;;16.50;52.80;;;;;;6262233;22;20253;-54
2021/01/07 06:34:04;;;;;;;4.07;2.07;;;16.40;52.70;;;;;;6266595;22;20169;-54
2021/01/07 06:36:39;;;;;;;2.20;2.00;;;16.40;52.60;;;;;;6262448;22;20552;-54
2021/01/07 06:39:06;;;;;;;2.37;2.13;;;16.40;52.60;;;;;;6265793;22;20275;-54
2021/01/07 06:41:34;;;;;;;2.03;1.87;;;16.40;52.80;;;;;;6260630;22;20265;-54
2021/01/07 06:44:02;;;;;;;5.23;2.60;;;16.40;52.80;;;;;;6238891;22;20393;-54
2021/01/07 06:46:41;;;;;;;7.33;3.23;;;16.40;52.70;;;;;;6260985;22;20717;-54
2021/01/07 06:49:20;;;;;;;4.43;2.73;;;16.40;52.80;;;;;;6265443;22;20636;-54
2021/01/07 06:51:51;;;;;;;3.50;2.37;;;16.40;52.80;;;;;;6260689;22;20799;-54
2021/01/07 06:54:17;;;;;;;3.60;2.50;;;16.40;52.80;;;;;;6264850;22;20542;-54
2021/01/07 06:56:44;;;;;;;4.83;2.77;;;16.40;52.70;;;;;;6261052;22;20264;-54
2021/01/07 06:59:13;;;;;;;4.13;2.67;;;16.40;52.70;;;;;;6265041;22;20648;-54
2021/01/07 07:01:55;;;;;;;4.57;2.80;;;16.40;52.60;;;;;;6260158;22;20180;-54
2021/01/07 07:04:28;;;;;;;3.20;2.20;;;16.40;52.60;;;;;;6264630;22;20200;-54
2021/01/07 07:06:59;;;;;;;3.93;2.40;;;16.40;52.60;;;;;;6260272;22;20237;-54
2021/01/07 07:09:26;;;;;;;4.33;2.67;;;16.40;52.60;;;;;;6262265;22;20537;-54
2021/01/07 07:11:56;;;;;;;5.03;3.00;;;16.40;52.60;;;;;;6260983;22;20264;-54
2021/01/07 07:14:23;;;;;;;2.27;2.00;;;16.40;52.60;;;;;;6237906;22;20272;-54
2021/01/07 07:16:51;;;;;;;4.53;2.30;;;16.40;52.60;;;;;;6260203;22;20161;-55
2021/01/07 07:19:27;;;;;;;6.47;2.67;;;16.40;52.60;;;;;;6262917;22;20184;-54
2021/01/07 07:22:03;;;;;;;3.30;2.43;;;16.40;52.60;;;;;;6255566;22;20863;-54
2021/01/07 07:24:45;;;;;;;4.23;2.50;;;16.40;52.60;;;;;;6263841;22;20276;-54
2021/01/07 07:27:12;;;;;;;3.37;2.70;;;16.40;52.60;;;;;;6260943;22;20791;-54
2021/01/07 07:29:44;;;;;;;5.43;2.70;;;16.30;52.60;;;;;;6266019;22;20260;-54
2021/01/07 07:32:26;;;;;;;5.90;2.70;;;16.30;52.50;;;;;;6268848;22;20196;-55
2021/01/07 07:34:54;;;;;;;3.27;2.40;;;16.40;52.60;;;;;;6265232;22;20248;-56
2021/01/07 07:37:26;;;;;;;3.90;2.50;;;16.40;52.60;;;;;;6269900;22;20197;-55
2021/01/07 07:40:01;;;;;;;3.10;2.17;;;16.30;52.40;;;;;;6265741;22;20248;-55
2021/01/07 07:42:29;;;;;;;3.37;2.60;;;16.30;52.40;;;;;;6270602;22;20600;-54
2021/01/07 07:44:59;;;;;;;3.13;2.50;;;16.30;52.50;;;;;;6266422;22;20269;-53
2021/01/07 07:47:26;;;;;;;3.47;2.80;;;16.30;52.50;;;;;;6271704;22;20177;-54
2021/01/07 07:49:56;;;;;;;3.13;2.43;;;16.30;52.50;;;;;;6267324;22;20222;-54
2021/01/07 07:52:23;;;;;;;3.67;2.40;;;16.40;52.50;;;;;;6243227;22;20551;-55
2021/01/07 07:55:04;;;;;;;18.57;5.00;;;16.40;53.30;;;;;;6265029;22;20294;-54
2021/01/07 07:57:48;;;;;;;15.27;5.00;;;17.00;52.90;;;;;;6238140;22;20173;-53
2021/01/07 08:00:20;;;;;;;9.93;4.17;;;17.60;51.60;;;;;;6267727;22;20848;-54
2021/01/07 08:02:51;;;;;;;11.77;3.80;;;18.00;51.10;;;;;;6242226;22;20180;-54
2021/01/07 08:05:31;;;;;;;9.67;4.27;;;18.30;50.10;;;;;;6263923;22;20201;-53
2021/01/07 08:07:59;;;;;;;8.53;4.13;;;18.50;49.90;;;;;;6264359;22;20248;-53
2021/01/07 08:10:26;;;;;;;10.17;3.70;;;18.70;49.40;;;;;;6262847;22;20165;-53
2021/01/07 08:12:54;;;;;;;5.07;3.27;;;18.80;49.10;;;;;;6264215;22;20165;-53
2021/01/07 08:15:30;;;;;;;9.43;3.83;;;19.00;48.70;;;;;;6260059;22;20169;-56
2021/01/07 08:18:15;;;;;;;10.50;3.70;;;19.20;48.20;;;;;;6264025;22;20248;-55
2021/01/07 08:20:42;;;;;;;5.30;3.53;;;19.30;48.10;;;;;;6260919;22;20621;-55
2021/01/07 08:23:13;;;;;;;7.73;3.40;;;19.30;48.20;;;;;;6261815;22;20568;-55
2021/01/07 08:25:41;;;;;;;5.97;3.57;;;19.40;48.00;;;;;;6259954;22;20193;-55
2021/01/07 08:28:30;;;;;;;6.57;3.33;;;19.40;47.80;;;;;;6265023;22;20222;-56
2021/01/07 08:31:10;;;;;;;8.33;3.90;;;19.60;47.60;;;;;;6259545;22;20551;-58
2021/01/07 08:33:36;;;;;;;7.80;3.33;;;19.90;47.50;;;;;;6268393;22;20177;-57
2021/01/07 08:36:08;;;;;;;7.87;3.37;;;20.30;47.50;;;;;;6261787;22;20253;-57
2021/01/07 08:38:37;;;;;;;9.57;3.10;;;20.60;47.20;;;;;;6265590;22;20169;-58
2021/01/07 08:41:26;;;;;;;7.63;3.37;;;20.90;47.00;;;;;;6261138;22;20180;-59
2021/01/07 08:43:54;;;;;;;6.97;3.30;;;21.10;46.30;;;;;;6264404;22;20260;-59
2021/01/07 08:46:26;;;;;;;7.33;3.17;;;21.40;46.20;;;;;;6261085;22;20207;-59
2021/01/07 08:49:16;;;;;;;16.23;3.87;;;21.60;45.60;;;;;;6264563;22;20169;-58
2021/01/07 08:51:44;;;;;;;10.23;3.10;;;21.80;45.60;;;;;;6261597;22;20157;-58
2021/01/07 08:54:16;;;;;;;6.87;3.40;;;22.00;45.20;;;;;;6265505;22;20252;-56
2021/01/07 08:56:50;;;;;;;7.47;3.50;;;22.10;44.70;;;;;;6260508;22;20244;-57
2021/01/07 08:59:20;;;;;;;5.73;3.23;;;22.30;44.50;;;;;;6264654;22;20180;-57
2021/01/07 09:01:48;;;;;;;12.37;3.20;;;22.40;44.40;;;;;;6261582;22;20173;-59
2021/01/07 09:04:25;;;;;;;6.40;3.20;;;22.50;44.20;;;;;;6264984;22;20280;-59
2021/01/07 09:06:57;;;;;;;6.17;3.40;;;22.60;44.00;;;;;;6260716;22;20185;-58
2021/01/07 09:09:39;;;;;;;4.47;2.93;;;22.80;43.80;;;;;;6265778;22;20265;-58
2021/01/07 09:12:10;;;;;;;6.00;3.23;;;22.90;43.40;;;;;;6260715;22;20244;-58
2021/01/07 09:15:12;;;;;;;8.07;2.80;;;23.00;43.50;;;;;;6263794;22;20241;-58
2021/01/07 09:17:39;;;;;;;4.73;2.87;;;23.10;43.10;;;;;;6271062;22;20236;-59
2021/01/07 09:20:10;;;;;;;4.57;2.80;;;23.20;43.60;;;;;;6265359;22;20205;-60
2021/01/07 09:22:37;;;;;;;4.93;2.90;;;23.30;42.80;;;;;;6262378;22;20625;-60
2021/01/07 09:25:04;;;;;;;6.13;2.70;;;23.30;42.80;;;;;;6264959;22;20307;-60
2021/01/07 09:27:31;;;;;;;6.10;2.80;;;23.40;42.60;;;;;;6259391;22;20169;-62
2021/01/07 09:29:57;;;;;;;3.60;2.67;;;23.50;42.70;;;;;;6264328;22;20173;-62
2021/01/07 09:32:24;;;;;;;5.07;2.90;;;23.50;42.60;;;;;;6261468;22;20255;-61
2021/01/07 09:34:50;;;;;;;2.63;2.43;;;23.50;42.70;;;;;;6262527;22;20191;-60
2021/01/07 09:37:18;;;;;;;3.47;2.60;;;23.60;42.50;;;;;;6268920;22;20300;-62
2021/01/07 09:39:47;;;;;;;4.53;2.23;;;23.80;42.10;;;;;;6268496;22;20272;-60
2021/01/07 09:42:20;;;;;;;3.83;2.73;;;23.90;42.30;;;;;;6261083;22;20177;-58
2021/01/07 09:44:52;;;;;;;4.90;2.20;;;23.90;42.00;;;;;;6264471;22;20260;-58
2021/01/07 09:47:18;;;;;;;2.90;2.43;;;24.00;41.70;;;;;;6261210;22;20248;-59
2021/01/07 09:49:44;;;;;;;4.43;2.50;;;24.20;41.60;;;;;;6264335;22;20165;-59
2021/01/07 09:52:11;;;;;;;10.33;2.53;;;24.30;41.50;;;;;;6265133;22;20571;-59
2021/01/07 09:54:39;;;;;;;2.83;2.30;;;24.20;41.50;;;;;;6260802;22;20241;-59
2021/01/07 09:57:06;;;;;;;4.10;2.40;;;23.70;42.20;;;;;;6238466;22;20173;-58
2021/01/07 09:59:33;;;;;;;3.63;2.30;;;23.20;43.50;;;;;;6256163;22;20180;-60
2021/01/07 10:02:01;;;;;;;2.53;2.10;;;22.90;44.40;;;;;;6259317;22;20567;-58
2021/01/07 10:04:33;;;;;;;4.43;2.50;;;22.70;44.90;;;;;;6259810;22;20526;-59
2021/01/07 10:07:00;;;;;;;2.97;2.27;;;22.50;45.80;;;;;;6264522;22;20293;-62
2021/01/07 10:09:26;;;;;;;4.50;2.80;;;22.40;45.70;;;;;;6259025;22;20173;-59
2021/01/07 10:11:56;;;;;;;3.70;2.50;;;22.20;45.80;;;;;;6265717;22;20248;-60
2021/01/07 10:14:24;;;;;;;6.20;2.20;;;22.20;46.20;;;;;;6258807;22;20272;-58
2021/01/07 10:17:03;;;;;;;4.83;2.23;;;22.10;45.70;;;;;;6265050;22;20153;-61
2021/01/07 10:19:31;;;;;;;5.03;2.03;;;22.00;46.30;;;;;;6260588;22;20737;-61
2021/01/07 10:22:06;;;;;;;6.07;2.27;;;22.00;46.00;;;;;;6264683;22;20202;-62
2021/01/07 10:24:40;;;;;;;4.30;2.30;;;21.90;46.60;;;;;;6259858;22;20177;-60
2021/01/07 10:27:09;;;;;;;2.90;1.97;;;21.90;46.70;;;;;;6264224;22;20278;-59
2021/01/07 10:29:38;;;;;;;4.20;2.13;;;21.90;46.10;;;;;;6259928;22;20518;-60
2021/01/07 10:32:05;;;;;;;4.80;2.00;;;21.80;46.60;;;;;;6262866;22;20181;-60
2021/01/07 10:34:40;;;;;;;4.63;1.97;;;21.80;46.60;;;;;;6258857;22;20178;-59
2021/01/07 10:37:08;;;;;;;4.63;2.00;;;21.80;46.50;;;;;;6262688;22;20204;-60
2021/01/07 10:39:38;;;;;;;4.30;2.03;;;21.80;46.40;;;;;;6259888;22;20497;-60
2021/01/07 10:42:06;;;;;;;1.60;1.50;;;21.70;46.40;;;;;;6263483;22;20173;-60
2021/01/07 10:44:35;;;;;;;3.23;1.63;;;21.70;46.40;;;;;;6263716;22;20177;-62
2021/01/07 10:47:03;;;;;;;2.97;1.80;;;21.70;46.60;;;;;;6262920;22;20185;-60
2021/01/07 10:49:30;;;;;;;5.43;1.90;;;21.70;46.80;;;;;;6262961;22;20689;-60
2021/01/07 10:52:12;;;;;;;11.00;2.23;;;21.60;46.80;;;;;;6259204;22;20214;-62
2021/01/07 10:54:44;;;;;;;2.10;1.70;;;21.60;46.70;;;;;;6263233;22;20244;-61
2021/01/07 10:57:29;;;;;;;14.03;1.90;;;21.60;46.60;;;;;;6258515;22;20158;-61
2021/01/07 11:00:23;;;;;;;5.50;1.60;;;21.60;46.60;;;;;;6258408;22;20700;-60
2021/01/07 11:03:03;;;;;;;4.13;1.80;;;21.50;47.10;;;;;;6263895;22;20571;-60
2021/01/07 11:05:45;;;;;;;6.93;1.90;;;21.50;46.80;;;;;;6260023;22;20562;-59
2021/01/07 11:08:22;;;;;;;5.20;1.73;;;21.50;47.10;;;;;;6263898;22;20240;-60
2021/01/07 11:10:51;;;;;;;3.50;1.63;;;21.40;47.20;;;;;;6251268;22;20256;-62
2021/01/07 11:13:34;;;;;;;1.77;1.67;;;21.40;46.80;;;;;;6266331;22;20260;-56
2021/01/07 11:16:00;;;;;;;1.93;1.60;;;21.40;46.10;;;;;;6262896;22;20225;-56
2021/01/07 11:18:33;;;;;;;3.20;1.70;;;21.30;45.40;;;;;;6265993;22;20179;-56
2021/01/07 11:21:04;;;;;;;3.97;1.60;;;21.20;45.70;;;;;;6238440;22;20274;-56
2021/01/07 11:23:33;;;;;;;2.90;1.60;;;21.10;44.70;;;;;;6263540;22;20177;-56
2021/01/07 11:26:01;;;;;;;3.23;1.30;;;21.00;44.70;;;;;;6266686;22;20279;-56
2021/01/07 11:28:27;;;;;;;1.40;1.30;;;20.90;44.60;;;;;;6263435;22;20244;-56
2021/01/07 11:30:54;;;;;;;1.40;1.30;;;20.80;44.60;;;;;;6268109;22;20236;-56
2021/01/07 11:33:21;;;;;;;2.30;1.40;;;20.80;44.70;;;;;;6236355;22;20244;-56
2021/01/07 11:35:48;;;;;;;1.50;1.40;;;20.70;44.70;;;;;;6266959;22;20173;-57
2021/01/07 11:38:25;;;;;;;1.27;1.17;;;20.70;44.80;;;;;;6272903;22;20240;-56
2021/01/07 11:41:02;;;;;;;1.77;1.30;;;20.60;44.90;;;;;;6258735;22;20177;-56
2021/01/07 11:44:06;;;;;;;1.10;1.00;;;20.50;45.00;;;;;;6261849;22;20697;-57
2021/01/07 11:46:34;;;;;;;0.93;0.80;;;20.50;45.00;;;;;;6271269;22;20188;-61
2021/01/07 11:49:03;;;;;;;0.93;0.90;;;20.90;45.40;;;;;;6259115;22;20184;-63
2021/01/07 11:51:30;;;;;;;0.90;0.90;;;21.70;44.30;;;;;;6263059;22;20181;-61
2021/01/07 11:54:02;;;;;;;1.43;1.07;;;22.30;43.40;;;;;;6259217;22;20268;-61
2021/01/07 11:56:29;;;;;;;0.67;0.67;;;22.70;42.80;;;;;;6264255;22;21225;-60
2021/01/07 11:59:01;;;;;;;1.10;0.83;;;22.90;42.60;;;;;;6235516;22;20236;-61
2021/01/07 12:01:32;;;;;;;1.23;0.97;;;23.20;42.20;;;;;;6264773;22;20338;-62
2021/01/07 12:03:58;;;;;;;5.47;0.93;;;23.30;42.10;;;;;;6260472;22;20177;-60
2021/01/07 12:06:36;;;;;;;2.10;1.23;;;23.50;42.10;;;;;;6265640;22;20185;-61
2021/01/07 12:09:33;;;;;;;1.53;0.77;;;23.50;42.10;;;;;;6262456;22;20169;-60
2021/01/07 12:12:04;;;;;;;1.20;1.10;;;23.70;42.00;;;;;;6265219;22;20244;-60
2021/01/07 12:14:41;;;;;;;0.83;0.80;;;23.80;41.60;;;;;;6259345;22;20170;-61
2021/01/07 12:17:13;;;;;;;0.90;0.90;;;23.90;41.50;;;;;;6264440;22;20186;-60
2021/01/07 12:19:40;;;;;;;1.20;1.10;;;23.90;41.50;;;;;;6262072;22;20195;-60
2021/01/07 12:22:09;;;;;;;0.77;0.77;;;24.00;41.70;;;;;;6265079;22;20632;-60
2021/01/07 12:24:36;;;;;;;3.00;0.90;;;24.10;41.70;;;;;;6261990;22;20169;-61
2021/01/07 12:27:05;;;;;;;0.80;0.80;;;24.10;41.70;;;;;;6263149;22;20189;-60
2021/01/07 12:29:40;;;;;;;4.63;1.20;;;24.20;41.60;;;;;;6261689;22;20338;-62
2021/01/07 12:32:22;;;;;;;;;;;24.30;41.70;;;;;;6263223;22;20095;-60
2021/01/07 12:35:03;;;;;;;;;;;24.40;41.30;;;;;;6262865;22;20417;-60
2021/01/07 12:37:34;;;;;;;;;;;24.50;41.20;;;;;;6262336;22;19918;-59
2021/01/07 12:40:06;;;;;;;;;;;24.60;41.00;;;;;;6262500;22;20367;-60
2021/01/07 12:42:43;;;;;;;;;;;24.80;40.80;;;;;;6265308;22;19915;-59
2021/01/07 12:45:14;;;;;;;;;;;24.90;40.70;;;;;;6262473;22;19919;-61
2021/01/07 12:47:40;;;;;;;;;;;25.00;40.60;;;;;;6265303;22;20002;-59
2021/01/07 12:50:07;;;;;;;;;;;25.20;40.50;;;;;;6262781;22;19942;-59
2021/01/07 12:52:34;;;;;;;;;;;25.20;40.50;;;;;;6265417;22;19919;-60
2021/01/07 12:55:01;;;;;;;;;;;25.30;40.20;;;;;;6264733;22;20343;-59
2021/01/07 12:57:46;;;;;;;;;;;25.30;40.50;;;;;;6263663;22;19915;-59
2021/01/07 13:00:16;;;;;;;;;;;25.30;40.60;;;;;;6267049;22;20011;-59
2021/01/07 13:02:48;;;;;;;;;;;25.50;40.50;;;;;;6264372;22;19915;-59